Xiushui, China
Current Conditions -  °F | °C
As of 3:00 PM on Thursday 23 Oct 2014 (Local Time) from ZGHA Reporting Station
Scattered Clouds Scattered Clouds  
Wind Chill: 79°   Ceiling: Unl
Heat Index: 79°   Visibility: 6mi
Dew Point: 48°   Wind: 2mph
Humidity: 34%   Direction: NA
Pressure: 30.03"   Gusts: NA
Location:  29.03°N, 114.58°E
Report Text: ZGHA 230700Z VRB01MPS 9999 SCT050 26/09 Q1017 NOSIG
Loading
Personal Weather Stations






























Interactive Weather Map
Tropical Storm Tracking
New forecast layout! Learn more

10-Day Weather Forecast

Advertisements
Track Severe Weather on mobile